ADDS METAR Data INFO
IDs: Format: Raw Decoded Include TAF

Data at: 0852 UTC 19 Jun 2018

PAHX 190756Z AUTO 18008KT 10SM -RA FEW050 OVC085 13/11 A2961 RMK AO2 RAE19B48 SLPNO P0000 T01280111
PAHX 190656Z AUTO 18004KT 10SM -RA FEW022 BKN050 OVC060 13/11 A2958 RMK AO2 RAB29 SLPNO P0005 T01280111
PAHX 190556Z AUTO 15010G15KT 10SM SCT050 OVC100 16/10 A2955 RMK AO2 SLPNO 6//// T01560100
PAHX 181856Z AUTO 05007KT 10SM -RA BKN041 OVC060 11/11 A2950 RMK AO2 RAB12 SLP989 P0003 T01110106
PAHX 181756Z AUTO 04008KT 10SM SCT043 OVC060 11/10 A2949 RMK AO2 RAB19E31 SLP988 P0000 60000 T01110100 10111 20100 56013
PAHX 181656Z AUTO 04011KT 10SM FEW009 OVC037 11/09 A2950 RMK AO2 SLP990 T01110094
PAHX 181631Z AUTO 04010KT 10SM FEW009 SCT039 OVC065 11/09 A2950 RMK AO2
PAHX 181556Z AUTO 04008KT 10SM OVC060 11/09 A2952 RMK AO2 SLP995 T01110094
PAHX 181456Z AUTO 03008KT 10SM FEW006 OVC055 11/09 A2953 RMK AO2 RAE20 SLP000 P0000 60000 T01060094 56025
PAHX 181356Z AUTO 03006KT 10SM -RA OVC060 11/09 A2955 RMK AO2 RAB02 SLP007 P0000 T01060094
PAHX 181256Z AUTO 05005KT 10SM BKN065 BKN080 11/09 A2958 RMK AO2 RAE18 SLP017 P0000 T01060089
PAHX 181056Z AUTO 05005KT 10SM BKN048 BKN075 OVC110 11/08 A2962 RMK AO2 SLP031 T01060083
PAHX 180956Z AUTO 11007KT 10SM BKN110 11/08 A2964 RMK AO2 SLP038 T01110083
PAHX 180856Z AUTO 09004KT 10SM FEW080 OVC100 11/08 A2966 RMK AO2 SLP043 60000 T01110083 401390094 56010
PAHX 180756Z AUTO 11004KT 10SM OVC075 11/09 A2967 RMK AO2 RAB03E41 SLP046 P0000 T01110089
PAHX 180656Z AUTO 06003KT 10SM SCT060 OVC075 12/09 A2967 RMK AO2 RAB16E28 SLP049 P0000 T01170089
PAHX 180556Z AUTO 14005KT 10SM BKN047 OVC055 12/09 A2969 RMK AO2 RAE40 SLP053 P0000 60001 T01170089 10139 20111 58002
PAHX 180456Z AUTO 00000KT 10SM -RA FEW035 BKN050 OVC080 12/09 A2969 RMK AO2 RAB07 SLP056 P0001 T01170094
PAHX 180356Z AUTO 19005KT 10SM BKN034 OVC043 13/08 A2969 RMK AO2 RAB09E53 SLP054 P0000 T01280083
PAHX 180256Z AUTO 18006KT 10SM FEW033 BKN047 OVC055 13/08 A2969 RMK AO2 RAB25E41 SLP055 P0000 60000 T01280078 53001
PAHX 180156Z AUTO 17006G14KT 10SM SCT030 BKN038 OVC047 13/08 A2969 RMK AO2 SLP053 T01330078
PAHX 180056Z AUTO 15011G16KT 10SM SCT029 OVC037 13/08 A2969 RMK AO2 SLP052 T01330078
PAHX 172356Z AUTO 19009KT 10SM SCT028 BKN044 OVC060 13/07 A2969 RMK AO2 SLP054 60000 T01280072 10128 20100 53004
PAHX 172256Z AUTO 19011KT 10SM SCT032 BKN041 OVC065 12/07 A2969 RMK AO2 RAE42 SLP053 P0000 T01170067
PAHX 172242Z AUTO 20014G19KT 10SM SCT027 OVC039 11/07 A2969 RMK AO2 RAE42 P0000
PAHX 172156Z AUTO 18007G15KT 150V210 10SM -RA SCT027 BKN038 OVC045 12/08 A2968 RMK AO2 RAE13B37 SLP050 P0000 T01170078
PAHX 172144Z AUTO 18007G15KT 10SM -RA SCT024 BKN029 OVC036 12/08 A2968 RMK AO2 RAE13B37 P0000
PAHX 172056Z AUTO 18008G15KT 10SM -RA FEW025 BKN037 OVC050 12/08 A2967 RMK AO2 RAB48 SLP046 P0000 60000 T01170078 53011